Time,TemperatureF,DewpointF,PressureIn,WindDirection,WindDirectionDegrees,WindSpeedMPH,WindSpeedGustMPH,Humidity,HourlyPrecipIn,Conditions,Clouds,dailyrainin,SoftwareType,DateUTC
2013-08-12 00:04:00,74.5,73.9,30.06,East,95,0.0,0.0,98,0.00,,SKC,0.00,VWS V14.01,2013-08-12 04:04:00,
2013-08-12 00:06:00,74.5,73.9,30.06,East,95,0.0,0.0,98,0.00,,SKC,0.00,VWS V14.01,2013-08-12 04:06:00,
2013-08-12 00:11:00,74.4,73.8,30.06,East,94,0.0,0.0,98,0.00,,SKC,0.00,VWS V14.01,2013-08-12 04:11:00,
2013-08-12 00:12:00,74.4,73.8,30.06,East,94,0.0,0.0,98,0.00,,SKC,0.00,VWS V14.01,2013-08-12 04:12:00,
2013-08-12 00:18:00,74.4,73.8,30.06,East,95,0.0,0.0,98,0.00,,SKC,0.00,VWS V14.01,2013-08-12 04:18:00,
2013-08-12 00:24:00,74.3,73.7,30.06,SSE,160,0.0,0.0,98,0.00,,SKC,0.00,VWS V14.01,2013-08-12 04:24:00,
2013-08-12 00:30:00,74.6,74.0,30.06,SSE,160,0.0,0.0,98,0.00,,SKC,0.00,VWS V14.01,2013-08-12 04:30:00,
2013-08-12 00:36:00,74.4,73.8,30.06,SSE,160,0.0,0.0,98,0.00,,SKC,0.00,VWS V14.01,2013-08-12 04:36:00,
2013-08-12 00:41:00,74.4,73.8,30.06,SSE,160,0.0,0.0,98,0.00,,SKC,0.00,VWS V14.01,2013-08-12 04:41:00,
2013-08-12 00:46:00,74.3,73.7,30.06,SSE,160,0.0,0.0,98,0.00,,SKC,0.00,VWS V14.01,2013-08-12 04:46:00,
2013-08-12 00:51:00,74.1,73.5,30.06,SSE,160,0.0,0.0,98,0.00,,SKC,0.00,VWS V14.01,2013-08-12 04:51:00,
2013-08-12 00:56:00,74.1,73.5,30.06,SSE,161,0.0,0.0,98,0.00,,SKC,0.00,VWS V14.01,2013-08-12 04:56:00,
2013-08-12 01:02:00,73.9,73.3,30.06,SSE,160,0.0,0.0,98,0.00,,SKC,0.00,VWS V14.01,2013-08-12 05:02:00,
2013-08-12 01:08:00,74.0,73.4,30.06,SSE,160,0.0,0.0,98,0.00,,SKC,0.00,VWS V14.01,2013-08-12 05:08:00,
2013-08-12 01:14:00,73.7,73.1,30.06,SSE,160,0.0,0.0,98,0.00,,SKC,0.00,VWS V14.01,2013-08-12 05:14:00,
2013-08-12 01:20:00,73.5,72.9,30.06,SSE,160,0.0,0.0,98,0.00,,SKC,0.00,VWS V14.01,2013-08-12 05:20:00,
2013-08-12 01:26:00,73.4,72.8,30.06,SSE,160,0.0,0.0,98,0.00,,SKC,0.00,VWS V14.01,2013-08-12 05:26:00,
2013-08-12 01:31:00,73.4,72.8,30.06,SSE,160,0.0,0.0,98,0.00,,SKC,0.00,VWS V14.01,2013-08-12 05:31:00,
2013-08-12 01:36:00,73.3,72.7,30.05,SSE,160,0.0,0.0,98,0.00,,SKC,0.00,VWS V14.01,2013-08-12 05:36:00,
2013-08-12 01:41:00,73.3,72.7,30.05,SSE,160,0.0,0.0,98,0.01,,SKC,0.01,VWS V14.01,2013-08-12 05:41:00,
2013-08-12 01:46:00,73.2,72.6,30.05,SSE,160,0.0,0.0,98,0.01,,SKC,0.01,VWS V14.01,2013-08-12 05:46:00,
2013-08-12 01:51:00,73.2,72.6,30.05,SSE,160,0.0,0.0,98,0.01,,SKC,0.01,VWS V14.01,2013-08-12 05:51:00,
2013-08-12 01:56:00,73.1,72.5,30.05,SSE,160,0.0,0.0,98,0.01,,SKC,0.01,VWS V14.01,2013-08-12 05:56:00,
2013-08-12 02:01:00,73.0,72.4,30.05,SSE,160,0.0,0.0,98,0.01,,SKC,0.01,VWS V14.01,2013-08-12 06:01:00,
2013-08-12 02:06:00,72.9,72.3,30.05,SSE,160,0.0,0.0,98,0.01,,SKC,0.01,VWS V14.01,2013-08-12 06:06:00,
2013-08-12 02:12:00,72.9,72.3,30.04,SSE,160,0.0,0.0,98,0.01,,SKC,0.01,VWS V14.01,2013-08-12 06:12:00,
2013-08-12 02:18:00,72.8,72.2,30.04,SSE,160,0.0,0.0,98,0.01,,SKC,0.01,VWS V14.01,2013-08-12 06:18:00,
2013-08-12 02:24:00,72.6,72.0,30.04,SSE,160,0.0,0.0,98,0.01,,SKC,0.01,VWS V14.01,2013-08-12 06:24:00,
2013-08-12 02:30:00,72.3,71.7,30.04,SSE,160,0.0,0.0,98,0.01,,SKC,0.01,VWS V14.01,2013-08-12 06:30:00,
2013-08-12 02:36:00,72.2,71.6,30.04,SSE,160,0.0,0.0,98,0.01,,SKC,0.01,VWS V14.01,2013-08-12 06:36:00,
2013-08-12 02:41:00,72.2,71.6,30.03,SSE,160,0.0,0.0,98,0.01,,SKC,0.01,VWS V14.01,2013-08-12 06:41:00,
2013-08-12 02:46:00,72.1,71.5,30.03,SSE,160,0.0,0.0,98,0.00,,SKC,0.01,VWS V14.01,2013-08-12 06:46:00,
2013-08-12 02:51:00,71.9,71.3,30.03,SSE,160,0.0,0.0,98,0.00,,SKC,0.01,VWS V14.01,2013-08-12 06:51:00,
2013-08-12 02:56:00,71.8,71.2,30.03,SSE,160,0.0,0.0,98,0.00,,SKC,0.01,VWS V14.01,2013-08-12 06:56:00,
2013-08-12 03:01:00,71.8,71.2,30.03,SSE,160,0.0,0.0,98,0.00,,SKC,0.01,VWS V14.01,2013-08-12 07:01:00,
2013-08-12 03:06:00,71.7,71.1,30.03,SSE,160,0.0,0.0,98,0.00,,SKC,0.01,VWS V14.01,2013-08-12 07:06:00,
2013-08-12 03:12:00,71.7,71.1,30.03,WSW,242,1.0,0.0,98,0.00,,SKC,0.01,VWS V14.01,2013-08-12 07:12:00,
2013-08-12 03:18:00,72.0,71.7,30.03,SW,235,0.0,0.0,99,0.00,,SKC,0.01,VWS V14.01,2013-08-12 07:18:00,
2013-08-12 03:25:00,72.0,71.4,30.03,SW,233,0.0,0.0,98,0.00,,SKC,0.01,VWS V14.01,2013-08-12 07:25:00,
2013-08-12 03:31:00,71.9,71.3,30.03,SW,233,0.0,0.0,98,0.00,,SKC,0.01,VWS V14.01,2013-08-12 07:31:00,
2013-08-12 03:36:00,71.8,71.2,30.03,SW,233,0.0,0.0,98,0.00,,SKC,0.01,VWS V14.01,2013-08-12 07:36:00,
2013-08-12 03:41:00,71.8,71.2,30.03,SSW,212,0.0,0.0,98,0.00,,SKC,0.01,VWS V14.01,2013-08-12 07:41:00,
2013-08-12 03:46:00,71.8,71.2,30.03,SSW,212,0.0,0.0,98,0.00,,SKC,0.01,VWS V14.01,2013-08-12 07:46:00,
2013-08-12 03:51:00,71.7,71.1,30.04,SSW,212,0.0,0.0,98,0.00,,SKC,0.01,VWS V14.01,2013-08-12 07:51:00,
2013-08-12 03:56:00,71.7,71.1,30.04,SSW,212,0.0,0.0,98,0.00,,SKC,0.01,VWS V14.01,2013-08-12 07:56:00,
2013-08-12 04:01:00,71.8,71.5,30.03,SSW,212,0.0,0.0,99,0.00,,SKC,0.01,VWS V14.01,2013-08-12 08:01:00,
2013-08-12 04:06:00,72.1,71.8,30.04,SW,219,0.0,0.0,99,0.00,,SKC,0.01,VWS V14.01,2013-08-12 08:06:00,
2013-08-12 04:11:00,72.0,71.7,30.03,SW,219,0.0,0.0,99,0.00,,SKC,0.01,VWS V14.01,2013-08-12 08:11:00,
2013-08-12 04:16:00,72.1,71.8,30.04,SW,219,0.0,0.0,99,0.00,,SKC,0.01,VWS V14.01,2013-08-12 08:16:00,
2013-08-12 04:21:00,72.0,71.7,30.04,SW,218,0.0,0.0,99,0.00,,SKC,0.01,VWS V14.01,2013-08-12 08:21:00,
2013-08-12 04:26:00,72.0,71.7,30.04,SW,224,0.0,0.0,99,0.00,,SKC,0.01,VWS V14.01,2013-08-12 08:26:00,
2013-08-12 04:31:00,71.9,71.6,30.04,SW,228,0.0,0.0,99,0.00,,SKC,0.01,VWS V14.01,2013-08-12 08:31:00,
2013-08-12 04:36:00,72.0,71.7,30.04,SW,226,0.0,0.0,99,0.00,,SKC,0.01,VWS V14.01,2013-08-12 08:36:00,
2013-08-12 04:41:00,72.0,71.7,30.03,SW,228,0.0,0.0,99,0.00,,SKC,0.01,VWS V14.01,2013-08-12 08:41:00,
2013-08-12 04:46:00,72.1,71.8,30.03,SW,228,0.0,0.0,99,0.00,,SKC,0.01,VWS V14.01,2013-08-12 08:46:00,
2013-08-12 04:51:00,72.1,71.8,30.03,SW,228,0.0,0.0,99,0.00,,SKC,0.01,VWS V14.01,2013-08-12 08:51:00,
2013-08-12 04:56:00,71.9,71.6,30.03,SW,227,0.0,0.0,99,0.00,,SKC,0.01,VWS V14.01,2013-08-12 08:56:00,
2013-08-12 05:01:00,71.8,71.5,30.03,SW,228,0.0,0.0,99,0.00,,SKC,0.01,VWS V14.01,2013-08-12 09:01:00,
2013-08-12 05:06:00,71.6,71.3,30.03,SW,227,0.0,0.0,99,0.00,,SKC,0.01,VWS V14.01,2013-08-12 09:06:00,
2013-08-12 05:11:00,71.6,71.3,30.03,SW,228,0.0,0.0,99,0.00,,SKC,0.01,VWS V14.01,2013-08-12 09:11:00,
2013-08-12 05:16:00,71.6,71.3,30.03,SW,228,0.0,0.0,99,0.00,,SKC,0.01,VWS V14.01,2013-08-12 09:16:00,
2013-08-12 05:21:00,71.6,71.3,30.03,SW,228,0.0,0.0,99,0.00,,SKC,0.01,VWS V14.01,2013-08-12 09:21:00,
2013-08-12 05:26:00,71.5,71.2,30.03,SW,228,0.0,0.0,99,0.00,,SKC,0.01,VWS V14.01,2013-08-12 09:26:00,
2013-08-12 05:31:00,71.6,71.3,30.03,SW,228,1.0,0.0,99,0.00,,SKC,0.01,VWS V14.01,2013-08-12 09:31:00,
2013-08-12 05:36:00,71.5,71.2,30.04,SSW,197,0.0,0.0,99,0.00,,SKC,0.01,VWS V14.01,2013-08-12 09:36:00,
2013-08-12 05:41:00,71.5,71.2,30.04,SSW,205,1.0,0.0,99,0.00,,SKC,0.01,VWS V14.01,2013-08-12 09:41:00,
2013-08-12 05:46:00,71.5,71.2,30.04,SW,224,0.0,0.0,99,0.00,,SKC,0.01,VWS V14.01,2013-08-12 09:46:00,
2013-08-12 05:51:00,71.6,71.3,30.04,SW,229,0.0,0.0,99,0.00,,SKC,0.01,VWS V14.01,2013-08-12 09:51:00,
2013-08-12 05:56:00,71.5,71.2,30.04,SW,219,0.0,0.0,99,0.00,,SKC,0.01,VWS V14.01,2013-08-12 09:56:00,
2013-08-12 06:01:00,71.4,71.1,30.04,SSW,204,0.0,0.0,99,0.00,,SKC,0.01,VWS V14.01,2013-08-12 10:01:00,
2013-08-12 06:07:00,71.4,71.1,30.04,SW,228,0.0,0.0,99,0.00,,SKC,0.01,VWS V14.01,2013-08-12 10:07:00,
2013-08-12 06:13:00,71.3,71.0,30.04,SW,222,0.0,0.0,99,0.00,,SKC,0.01,VWS V14.01,2013-08-12 10:13:00,
2013-08-12 06:19:00,71.2,70.9,30.05,WSW,245,0.0,0.0,99,0.00,,SKC,0.01,VWS V14.01,2013-08-12 10:19:00,
2013-08-12 06:25:00,71.1,70.8,30.05,WSW,245,0.0,0.0,99,0.00,,SKC,0.01,VWS V14.01,2013-08-12 10:25:00,
2013-08-12 06:31:00,71.0,70.7,30.05,WSW,243,0.0,0.0,99,0.00,,SKC,0.01,VWS V14.01,2013-08-12 10:31:00,
2013-08-12 06:36:00,71.0,70.7,30.05,WSW,243,0.0,0.0,99,0.00,,SKC,0.01,VWS V14.01,2013-08-12 10:36:00,
2013-08-12 06:41:00,71.0,70.7,30.05,WSW,243,0.0,0.0,99,0.00,,SKC,0.01,VWS V14.01,2013-08-12 10:41:00,
2013-08-12 06:46:00,70.9,70.6,30.05,WSW,243,0.0,0.0,99,0.00,,SKC,0.01,VWS V14.01,2013-08-12 10:46:00,
2013-08-12 06:51:00,70.9,70.6,30.05,WSW,243,0.0,0.0,99,0.00,,SKC,0.01,VWS V14.01,2013-08-12 10:51:00,
2013-08-12 06:56:00,71.0,70.7,30.05,SW,221,0.0,0.0,99,0.00,,SKC,0.01,VWS V14.01,2013-08-12 10:56:00,
2013-08-12 07:01:00,71.0,70.7,30.06,SW,221,0.0,0.0,99,0.00,,SKC,0.01,VWS V14.01,2013-08-12 11:01:00,
2013-08-12 07:06:00,70.9,70.6,30.06,SW,222,0.0,0.0,99,0.00,,SKC,0.01,VWS V14.01,2013-08-12 11:06:00,
2013-08-12 07:11:00,70.9,70.6,30.06,SW,235,0.0,0.0,99,0.00,,SKC,0.01,VWS V14.01,2013-08-12 11:11:00,
2013-08-12 07:16:00,70.9,70.6,30.06,SW,235,0.0,0.0,99,0.00,,SKC,0.01,VWS V14.01,2013-08-12 11:16:00,
2013-08-12 07:21:00,70.9,70.6,30.05,SW,236,1.0,0.0,99,0.00,,SKC,0.01,VWS V14.01,2013-08-12 11:21:00,
2013-08-12 07:26:00,71.0,70.7,30.06,SW,235,0.0,0.0,99,0.00,,SKC,0.01,VWS V14.01,2013-08-12 11:26:00,
2013-08-12 07:31:00,71.1,70.8,30.05,WSW,253,0.0,0.0,99,0.00,,SKC,0.01,VWS V14.01,2013-08-12 11:31:00,
2013-08-12 07:36:00,71.2,70.9,30.06,SW,235,0.0,0.0,99,0.00,,SKC,0.01,VWS V14.01,2013-08-12 11:36:00,
2013-08-12 07:41:00,71.3,71.0,30.05,SW,235,0.0,0.0,99,0.00,,SKC,0.01,VWS V14.01,2013-08-12 11:41:00,
2013-08-12 07:46:00,71.4,71.1,30.05,SW,233,0.0,0.0,99,0.00,,SKC,0.01,VWS V14.01,2013-08-12 11:46:00,
2013-08-12 07:51:00,71.5,71.2,30.06,SSW,195,0.0,0.0,99,0.00,,SKC,0.01,VWS V14.01,2013-08-12 11:51:00,
2013-08-12 07:56:00,71.6,71.3,30.06,SW,225,0.0,0.0,99,0.00,,SKC,0.01,VWS V14.01,2013-08-12 11:56:00,
2013-08-12 08:01:00,71.9,71.6,30.06,SW,226,0.0,0.0,99,0.00,,SKC,0.01,VWS V14.01,2013-08-12 12:01:00,
2013-08-12 08:06:00,72.0,71.7,30.06,South,184,0.0,0.0,99,0.00,,SKC,0.01,VWS V14.01,2013-08-12 12:06:00,
2013-08-12 08:11:00,72.0,71.7,30.06,South,183,0.0,0.0,99,0.00,,SKC,0.01,VWS V14.01,2013-08-12 12:11:00,
2013-08-12 08:16:00,72.5,72.2,30.06,South,183,0.0,0.0,99,0.00,,SKC,0.01,VWS V14.01,2013-08-12 12:16:00,
2013-08-12 08:21:00,72.9,72.6,30.06,South,184,0.0,0.0,99,0.00,,SKC,0.01,VWS V14.01,2013-08-12 12:21:00,
2013-08-12 08:26:00,73.7,73.4,30.06,South,184,0.0,0.0,99,0.00,,SKC,0.01,VWS V14.01,2013-08-12 12:26:00,
2013-08-12 08:31:00,74.4,74.1,30.06,South,183,0.0,0.0,99,0.00,,SKC,0.01,VWS V14.01,2013-08-12 12:31:00,
2013-08-12 08:36:00,75.0,74.4,30.06,SW,218,0.0,0.0,98,0.00,,SKC,0.01,VWS V14.01,2013-08-12 12:36:00,
2013-08-12 08:41:00,76.0,75.4,30.06,SW,218,0.0,0.0,98,0.00,,SKC,0.01,VWS V14.01,2013-08-12 12:41:00,
2013-08-12 08:46:00,76.9,76.0,30.06,SW,218,0.0,0.0,97,0.00,,SKC,0.01,VWS V14.01,2013-08-12 12:46:00,
2013-08-12 08:51:00,77.3,75.8,30.06,SW,217,0.0,0.0,95,0.00,,SKC,0.01,VWS V14.01,2013-08-12 12:51:00,
2013-08-12 08:56:00,77.9,75.7,30.06,SW,226,0.0,0.0,93,0.00,,SKC,0.01,VWS V14.01,2013-08-12 12:56:00,
2013-08-12 09:01:00,79.1,76.2,30.06,SW,226,1.0,0.0,91,0.00,,SKC,0.01,VWS V14.01,2013-08-12 13:01:00,
2013-08-12 09:06:00,80.1,76.6,30.06,SW,231,0.0,0.0,89,0.00,,SKC,0.01,VWS V14.01,2013-08-12 13:06:00,
2013-08-12 09:11:00,80.6,75.7,30.06,SW,231,0.0,0.0,85,0.00,,SKC,0.01,VWS V14.01,2013-08-12 13:11:00,
2013-08-12 09:16:00,80.8,75.5,30.06,East,100,0.0,0.0,84,0.00,,SKC,0.01,VWS V14.01,2013-08-12 13:16:00,
2013-08-12 09:21:00,81.0,75.3,30.06,NW,304,0.0,0.0,83,0.00,,SKC,0.01,VWS V14.01,2013-08-12 13:21:00,
2013-08-12 09:26:00,81.3,75.3,30.06,WNW,290,0.0,0.0,82,0.00,,SKC,0.01,VWS V14.01,2013-08-12 13:26:00,
2013-08-12 09:31:00,81.6,74.8,30.06,WNW,288,0.0,0.0,80,0.00,,SKC,0.01,VWS V14.01,2013-08-12 13:31:00,
2013-08-12 09:36:00,82.3,75.9,30.06,WNW,288,0.0,0.0,81,0.00,,SKC,0.01,VWS V14.01,2013-08-12 13:36:00,
2013-08-12 09:41:00,82.7,74.8,30.06,SSW,201,1.0,0.0,77,0.00,,SKC,0.01,VWS V14.01,2013-08-12 13:41:00,
2013-08-12 09:46:00,83.1,75.9,30.06,East,101,0.0,0.0,79,0.00,,SKC,0.01,VWS V14.01,2013-08-12 13:46:00,
2013-08-12 09:51:00,83.3,75.7,30.06,SSW,205,0.0,0.0,78,0.00,,SKC,0.01,VWS V14.01,2013-08-12 13:51:00,
2013-08-12 09:56:00,83.7,75.3,30.06,ESE,118,0.0,0.0,76,0.00,,SKC,0.01,VWS V14.01,2013-08-12 13:56:00,
2013-08-12 10:01:00,83.8,75.0,30.06,East,87,1.0,0.0,75,0.00,,SKC,0.01,VWS V14.01,2013-08-12 14:01:00,
2013-08-12 10:06:00,83.4,74.7,30.06,SSE,150,0.0,0.0,75,0.00,,SKC,0.01,VWS V14.01,2013-08-12 14:06:00,
2013-08-12 10:11:00,83.5,73.9,30.05,NE,36,1.0,0.0,73,0.00,,SKC,0.01,VWS V14.01,2013-08-12 14:11:00,
2013-08-12 10:16:00,83.6,74.4,30.05,West,273,0.0,0.0,74,0.00,,SKC,0.01,VWS V14.01,2013-08-12 14:16:00,
2013-08-12 10:21:00,83.9,74.7,30.05,WSW,252,0.0,0.0,74,0.00,,SKC,0.01,VWS V14.01,2013-08-12 14:21:00,
2013-08-12 10:26:00,84.1,73.7,30.05,WSW,248,0.0,0.0,71,0.00,,SKC,0.01,VWS V14.01,2013-08-12 14:26:00,
2013-08-12 10:31:00,84.7,75.1,30.06,SW,222,1.0,0.0,73,0.00,,SKC,0.01,VWS V14.01,2013-08-12 14:31:00,
2013-08-12 10:36:00,84.8,74.4,30.06,NW,318,1.0,0.0,71,0.00,,SKC,0.01,VWS V14.01,2013-08-12 14:36:00,
2013-08-12 10:41:00,84.9,73.2,30.06,WNW,290,0.0,0.0,68,0.00,,SKC,0.01,VWS V14.01,2013-08-12 14:41:00,
2013-08-12 10:46:00,85.1,73.8,30.05,East,89,1.0,0.0,69,0.00,,SKC,0.01,VWS V14.01,2013-08-12 14:46:00,
2013-08-12 10:51:00,84.8,72.6,30.05,NNE,29,1.0,0.0,67,0.00,,SKC,0.01,VWS V14.01,2013-08-12 14:51:00,
2013-08-12 10:56:00,85.4,73.6,30.05,SSW,203,0.0,0.0,68,0.00,,SKC,0.01,VWS V14.01,2013-08-12 14:56:00,
2013-08-12 11:01:00,85.6,72.5,30.05,West,262,0.0,0.0,65,0.00,,SKC,0.01,VWS V14.01,2013-08-12 15:01:00,
2013-08-12 11:06:00,85.7,73.9,30.06,SSW,205,0.0,0.0,68,0.00,,SKC,0.01,VWS V14.01,2013-08-12 15:06:00,
2013-08-12 11:11:00,85.5,72.4,30.05,NNE,30,0.0,0.0,65,0.00,,SKC,0.01,VWS V14.01,2013-08-12 15:11:00,
2013-08-12 11:16:00,85.6,73.4,30.05,ESE,113,0.0,0.0,67,0.00,,SKC,0.01,VWS V14.01,2013-08-12 15:16:00,
2013-08-12 11:21:00,85.8,73.6,30.05,WNW,289,0.0,0.0,67,0.00,,SKC,0.01,VWS V14.01,2013-08-12 15:21:00,
2013-08-12 11:26:00,86.2,74.4,30.06,ESE,110,0.0,0.0,68,0.00,,SKC,0.01,VWS V14.01,2013-08-12 15:26:00,
2013-08-12 11:31:00,86.8,75.4,30.05,NNE,22,0.0,0.0,69,0.00,,SKC,0.01,VWS V14.01,2013-08-12 15:31:00,
2013-08-12 11:36:00,86.9,74.6,30.05,SSW,198,1.0,0.0,67,0.00,,SKC,0.01,VWS V14.01,2013-08-12 15:36:00,
2013-08-12 11:41:00,87.3,75.0,30.05,North,359,0.0,0.0,67,0.00,,SKC,0.01,VWS V14.01,2013-08-12 15:41:00,
2013-08-12 11:46:00,87.1,73.0,30.05,SW,215,0.0,0.0,63,0.00,,SKC,0.01,VWS V14.01,2013-08-12 15:46:00,